sensor_id;sensor_type;location;lat;lon;timestamp;temperature;humidity
8715;DHT22;4394;51.208;8.904;2024-03-23T00:53:51;10.20;99.90
8715;DHT22;4394;51.208;8.904;2024-03-23T00:56:38;10.20;99.90
8715;DHT22;4394;51.208;8.904;2024-03-23T00:59:25;10.10;99.90
8715;DHT22;4394;51.208;8.904;2024-03-23T01:02:15;10.10;99.90
8715;DHT22;4394;51.208;8.904;2024-03-23T01:05:02;10.00;99.90
8715;DHT22;4394;51.208;8.904;2024-03-23T01:07:49;10.00;99.90
8715;DHT22;4394;51.208;8.904;2024-03-23T01:10:35;10.10;99.90
8715;DHT22;4394;51.208;8.904;2024-03-23T01:13:22;10.00;99.90
8715;DHT22;4394;51.208;8.904;2024-03-23T01:16:09;9.90;99.90
8715;DHT22;4394;51.208;8.904;2024-03-23T01:18:58;9.70;99.90
8715;DHT22;4394;51.208;8.904;2024-03-23T01:21:44;9.50;99.90
8715;DHT22;4394;51.208;8.904;2024-03-23T01:24:32;9.50;99.90
8715;DHT22;4394;51.208;8.904;2024-03-23T01:27:18;9.40;99.90
8715;DHT22;4394;51.208;8.904;2024-03-23T01:30:06;9.20;99.90
8715;DHT22;4394;51.208;8.904;2024-03-23T01:32:53;9.10;99.90
8715;DHT22;4394;51.208;8.904;2024-03-23T01:35:42;9.10;99.90
8715;DHT22;4394;51.208;8.904;2024-03-23T01:38:28;9.10;99.90
8715;DHT22;4394;51.208;8.904;2024-03-23T01:41:16;9.00;99.90
8715;DHT22;4394;51.208;8.904;2024-03-23T01:44:05;9.00;99.90
8715;DHT22;4394;51.208;8.904;2024-03-23T01:46:53;8.90;99.90
8715;DHT22;4394;51.208;8.904;2024-03-23T01:49:39;8.80;99.90
8715;DHT22;4394;51.208;8.904;2024-03-23T01:52:28;8.80;99.90
8715;DHT22;4394;51.208;8.904;2024-03-23T01:55:15;8.70;99.90
8715;DHT22;4394;51.208;8.904;2024-03-23T01:58:02;8.70;99.90
8715;DHT22;4394;51.208;8.904;2024-03-23T02:00:49;8.70;99.90
8715;DHT22;4394;51.208;8.904;2024-03-23T02:03:36;8.60;99.90
8715;DHT22;4394;51.208;8.904;2024-03-23T02:06:24;8.60;99.90
8715;DHT22;4394;51.208;8.904;2024-03-23T02:09:13;8.60;99.90
8715;DHT22;4394;51.208;8.904;2024-03-23T02:12:02;8.60;99.90
8715;DHT22;4394;51.208;8.904;2024-03-23T02:14:49;8.50;99.90
8715;DHT22;4394;51.208;8.904;2024-03-23T02:17:37;8.40;99.90
8715;DHT22;4394;51.208;8.904;2024-03-23T02:20:23;8.40;99.90
8715;DHT22;4394;51.208;8.904;2024-03-23T02:23:14;8.40;99.90
8715;DHT22;4394;51.208;8.904;2024-03-23T02:26:02;8.30;99.90
8715;DHT22;4394;51.208;8.904;2024-03-23T02:28:48;8.20;99.90
8715;DHT22;4394;51.208;8.904;2024-03-23T02:31:36;8.20;99.90
8715;DHT22;4394;51.208;8.904;2024-03-23T02:34:22;8.20;99.90
8715;DHT22;4394;51.208;8.904;2024-03-23T02:37:10;8.20;99.90
8715;DHT22;4394;51.208;8.904;2024-03-23T02:39:58;8.10;99.90
8715;DHT22;4394;51.208;8.904;2024-03-23T02:42:46;8.10;99.90
8715;DHT22;4394;51.208;8.904;2024-03-23T02:45:32;8.00;99.90
8715;DHT22;4394;51.208;8.904;2024-03-23T02:48:20;8.00;99.90
8715;DHT22;4394;51.208;8.904;2024-03-23T02:51:07;7.90;99.90
8715;DHT22;4394;51.208;8.904;2024-03-23T02:53:53;7.90;99.90
8715;DHT22;4394;51.208;8.904;2024-03-23T02:56:42;7.90;99.90
8715;DHT22;4394;51.208;8.904;2024-03-23T02:59:28;7.90;99.90
8715;DHT22;4394;51.208;8.904;2024-03-23T03:02:16;7.80;99.90
8715;DHT22;4394;51.208;8.904;2024-03-23T03:05:03;7.80;99.90
8715;DHT22;4394;51.208;8.904;2024-03-23T03:07:50;7.80;99.90
8715;DHT22;4394;51.208;8.904;2024-03-23T03:10:38;7.70;99.90
8715;DHT22;4394;51.208;8.904;2024-03-23T03:13:25;7.60;99.90
8715;DHT22;4394;51.208;8.904;2024-03-23T03:16:12;7.50;99.90
8715;DHT22;4394;51.208;8.904;2024-03-23T03:18:59;7.40;99.90
8715;DHT22;4394;51.208;8.904;2024-03-23T03:21:47;7.40;99.90
8715;DHT22;4394;51.208;8.904;2024-03-23T03:24:33;7.30;99.90
8715;DHT22;4394;51.208;8.904;2024-03-23T03:27:21;7.20;99.90
8715;DHT22;4394;51.208;8.904;2024-03-23T03:30:11;7.20;99.90
8715;DHT22;4394;51.208;8.904;2024-03-23T03:32:58;7.10;99.90
8715;DHT22;4394;51.208;8.904;2024-03-23T03:35:44;7.10;99.90
8715;DHT22;4394;51.208;8.904;2024-03-23T03:38:32;7.00;99.90
8715;DHT22;4394;51.208;8.904;2024-03-23T03:41:18;6.90;99.90
8715;DHT22;4394;51.208;8.904;2024-03-23T03:44:06;6.90;99.90
8715;DHT22;4394;51.208;8.904;2024-03-23T03:46:54;6.80;99.90
8715;DHT22;4394;51.208;8.904;2024-03-23T03:49:41;6.80;99.90
8715;DHT22;4394;51.208;8.904;2024-03-23T03:52:27;6.70;99.90
8715;DHT22;4394;51.208;8.904;2024-03-23T03:55:15;6.50;99.90
8715;DHT22;4394;51.208;8.904;2024-03-23T03:58:02;6.50;99.90
8715;DHT22;4394;51.208;8.904;2024-03-23T04:00:50;6.40;99.90
8715;DHT22;4394;51.208;8.904;2024-03-23T04:03:38;6.30;99.90
8715;DHT22;4394;51.208;8.904;2024-03-23T04:06:29;6.10;99.90
8715;DHT22;4394;51.208;8.904;2024-03-23T04:09:16;6.10;99.90
8715;DHT22;4394;51.208;8.904;2024-03-23T04:12:04;6.10;99.90
8715;DHT22;4394;51.208;8.904;2024-03-23T04:14:53;6.10;99.90
8715;DHT22;4394;51.208;8.904;2024-03-23T04:17:40;6.00;99.90
8715;DHT22;4394;51.208;8.904;2024-03-23T04:20:30;6.00;99.90
8715;DHT22;4394;51.208;8.904;2024-03-23T04:23:18;6.00;99.90
8715;DHT22;4394;51.208;8.904;2024-03-23T04:26:05;6.00;99.90
8715;DHT22;4394;51.208;8.904;2024-03-23T04:28:52;5.90;99.90
8715;DHT22;4394;51.208;8.904;2024-03-23T04:31:39;5.90;99.90
8715;DHT22;4394;51.208;8.904;2024-03-23T04:34:25;5.90;99.90
8715;DHT22;4394;51.208;8.904;2024-03-23T04:37:14;5.90;99.90
8715;DHT22;4394;51.208;8.904;2024-03-23T04:40:03;5.80;99.90
8715;DHT22;4394;51.208;8.904;2024-03-23T04:42:50;5.70;99.90
8715;DHT22;4394;51.208;8.904;2024-03-23T04:45:38;5.70;99.90
8715;DHT22;4394;51.208;8.904;2024-03-23T04:48:25;5.60;99.90
8715;DHT22;4394;51.208;8.904;2024-03-23T04:51:20;5.60;99.90
8715;DHT22;4394;51.208;8.904;2024-03-23T04:54:09;5.50;99.90
8715;DHT22;4394;51.208;8.904;2024-03-23T04:56:57;5.50;99.90
8715;DHT22;4394;51.208;8.904;2024-03-23T04:59:44;5.30;99.90
8715;DHT22;4394;51.208;8.904;2024-03-23T05:02:31;5.30;99.90
8715;DHT22;4394;51.208;8.904;2024-03-23T05:05:22;5.30;99.90
8715;DHT22;4394;51.208;8.904;2024-03-23T05:08:09;5.20;99.90
8715;DHT22;4394;51.208;8.904;2024-03-23T05:10:58;5.10;99.90
8715;DHT22;4394;51.208;8.904;2024-03-23T05:13:44;5.20;99.90
8715;DHT22;4394;51.208;8.904;2024-03-23T05:16:32;5.10;99.90
8715;DHT22;4394;51.208;8.904;2024-03-23T05:19:19;4.90;99.90
8715;DHT22;4394;51.208;8.904;2024-03-23T05:22:06;4.90;99.90
8715;DHT22;4394;51.208;8.904;2024-03-23T05:24:53;4.90;99.90
8715;DHT22;4394;51.208;8.904;2024-03-23T05:27:42;4.80;99.90
8715;DHT22;4394;51.208;8.904;2024-03-23T05:30:29;4.80;99.90
8715;DHT22;4394;51.208;8.904;2024-03-23T05:33:16;4.70;99.90
8715;DHT22;4394;51.208;8.904;2024-03-23T05:36:04;4.70;99.90
8715;DHT22;4394;51.208;8.904;2024-03-23T05:38:51;4.60;99.90
8715;DHT22;4394;51.208;8.904;2024-03-23T05:41:39;4.60;99.90
8715;DHT22;4394;51.208;8.904;2024-03-23T05:44:26;4.60;99.90
8715;DHT22;4394;51.208;8.904;2024-03-23T05:47:14;4.60;99.90
8715;DHT22;4394;51.208;8.904;2024-03-23T05:50:02;4.50;99.90
8715;DHT22;4394;51.208;8.904;2024-03-23T05:52:50;4.60;99.90
8715;DHT22;4394;51.208;8.904;2024-03-23T05:55:37;4.70;99.90
8715;DHT22;4394;51.208;8.904;2024-03-23T05:58:24;4.70;99.90
8715;DHT22;4394;51.208;8.904;2024-03-23T06:01:12;4.70;99.90
8715;DHT22;4394;51.208;8.904;2024-03-23T06:03:59;4.60;99.90
8715;DHT22;4394;51.208;8.904;2024-03-23T06:06:47;4.60;99.90
8715;DHT22;4394;51.208;8.904;2024-03-23T06:09:34;4.60;99.90
8715;DHT22;4394;51.208;8.904;2024-03-23T06:12:21;4.60;99.90
8715;DHT22;4394;51.208;8.904;2024-03-23T06:15:09;4.60;99.90
8715;DHT22;4394;51.208;8.904;2024-03-23T06:17:57;4.50;99.90
8715;DHT22;4394;51.208;8.904;2024-03-23T06:20:45;4.60;99.90
8715;DHT22;4394;51.208;8.904;2024-03-23T06:23:32;4.60;99.90
8715;DHT22;4394;51.208;8.904;2024-03-23T06:26:21;4.60;99.90
8715;DHT22;4394;51.208;8.904;2024-03-23T06:29:08;4.50;99.90
8715;DHT22;4394;51.208;8.904;2024-03-23T06:31:57;4.50;99.90
8715;DHT22;4394;51.208;8.904;2024-03-23T06:34:45;4.60;99.90
8715;DHT22;4394;51.208;8.904;2024-03-23T06:37:33;4.60;99.90
8715;DHT22;4394;51.208;8.904;2024-03-23T06:40:19;4.60;99.90
8715;DHT22;4394;51.208;8.904;2024-03-23T06:43:07;4.70;99.90
8715;DHT22;4394;51.208;8.904;2024-03-23T06:45:54;4.70;99.90
8715;DHT22;4394;51.208;8.904;2024-03-23T06:48:42;4.80;99.90
8715;DHT22;4394;51.208;8.904;2024-03-23T06:51:32;4.80;99.90
8715;DHT22;4394;51.208;8.904;2024-03-23T06:54:19;4.90;99.90
8715;DHT22;4394;51.208;8.904;2024-03-23T06:57:07;4.90;99.90
8715;DHT22;4394;51.208;8.904;2024-03-23T06:59:54;4.90;99.90
8715;DHT22;4394;51.208;8.904;2024-03-23T07:02:41;5.00;99.90
8715;DHT22;4394;51.208;8.904;2024-03-23T07:05:27;5.00;99.90
8715;DHT22;4394;51.208;8.904;2024-03-23T07:08:16;5.10;99.90
8715;DHT22;4394;51.208;8.904;2024-03-23T07:11:07;5.10;99.90
8715;DHT22;4394;51.208;8.904;2024-03-23T07:13:55;5.20;99.90
8715;DHT22;4394;51.208;8.904;2024-03-23T07:16:41;5.40;99.90
8715;DHT22;4394;51.208;8.904;2024-03-23T07:19:29;5.20;99.90
8715;DHT22;4394;51.208;8.904;2024-03-23T07:22:15;5.20;99.90
8715;DHT22;4394;51.208;8.904;2024-03-23T07:25:05;5.30;99.90
8715;DHT22;4394;51.208;8.904;2024-03-23T07:27:53;5.40;99.90
8715;DHT22;4394;51.208;8.904;2024-03-23T07:30:41;5.50;99.90
8715;DHT22;4394;51.208;8.904;2024-03-23T07:33:29;5.60;99.90
8715;DHT22;4394;51.208;8.904;2024-03-23T07:36:16;5.60;99.90
8715;DHT22;4394;51.208;8.904;2024-03-23T07:39:03;5.60;99.90
8715;DHT22;4394;51.208;8.904;2024-03-23T07:41:52;5.60;99.90
8715;DHT22;4394;51.208;8.904;2024-03-23T07:44:39;5.70;99.90
8715;DHT22;4394;51.208;8.904;2024-03-23T07:47:26;5.70;99.90
8715;DHT22;4394;51.208;8.904;2024-03-23T07:50:13;5.80;99.90
8715;DHT22;4394;51.208;8.904;2024-03-23T07:53:01;5.90;99.90
8715;DHT22;4394;51.208;8.904;2024-03-23T07:55:54;5.90;99.90
8715;DHT22;4394;51.208;8.904;2024-03-23T07:58:44;5.90;99.90
8715;DHT22;4394;51.208;8.904;2024-03-23T08:01:33;6.00;99.90
8715;DHT22;4394;51.208;8.904;2024-03-23T08:04:22;6.00;99.90
8715;DHT22;4394;51.208;8.904;2024-03-23T08:07:10;6.10;99.90
8715;DHT22;4394;51.208;8.904;2024-03-23T08:09:56;6.10;99.90
8715;DHT22;4394;51.208;8.904;2024-03-23T08:12:46;6.00;99.90
8715;DHT22;4394;51.208;8.904;2024-03-23T08:15:35;5.90;99.90
8715;DHT22;4394;51.208;8.904;2024-03-23T08:18:24;5.80;99.90
8715;DHT22;4394;51.208;8.904;2024-03-23T08:21:12;5.80;99.90
8715;DHT22;4394;51.208;8.904;2024-03-23T08:23:58;5.80;99.90
8715;DHT22;4394;51.208;8.904;2024-03-23T08:26:46;5.90;99.90
8715;DHT22;4394;51.208;8.904;2024-03-23T08:29:32;5.90;99.90
8715;DHT22;4394;51.208;8.904;2024-03-23T08:32:21;6.00;99.90
8715;DHT22;4394;51.208;8.904;2024-03-23T08:35:09;6.00;99.90
8715;DHT22;4394;51.208;8.904;2024-03-23T08:37:56;6.10;99.90
8715;DHT22;4394;51.208;8.904;2024-03-23T08:40:43;6.20;99.90
8715;DHT22;4394;51.208;8.904;2024-03-23T08:43:31;6.20;99.90
8715;DHT22;4394;51.208;8.904;2024-03-23T08:46:18;6.10;99.90
8715;DHT22;4394;51.208;8.904;2024-03-23T08:49:07;6.10;99.90
8715;DHT22;4394;51.208;8.904;2024-03-23T08:51:54;6.00;99.90
8715;DHT22;4394;51.208;8.904;2024-03-23T08:54:42;6.00;99.90
8715;DHT22;4394;51.208;8.904;2024-03-23T08:57:28;6.10;99.90
8715;DHT22;4394;51.208;8.904;2024-03-23T09:00:17;6.20;99.90
8715;DHT22;4394;51.208;8.904;2024-03-23T09:03:03;6.20;99.90
8715;DHT22;4394;51.208;8.904;2024-03-23T09:05:52;6.30;99.90
8715;DHT22;4394;51.208;8.904;2024-03-23T09:08:40;6.40;99.90
8715;DHT22;4394;51.208;8.904;2024-03-23T09:11:29;6.40;99.90
8715;DHT22;4394;51.208;8.904;2024-03-23T09:14:15;6.50;99.90
8715;DHT22;4394;51.208;8.904;2024-03-23T09:17:03;6.60;99.90
8715;DHT22;4394;51.208;8.904;2024-03-23T09:19:49;6.60;99.90
8715;DHT22;4394;51.208;8.904;2024-03-23T09:22:39;6.70;99.90
8715;DHT22;4394;51.208;8.904;2024-03-23T09:25:26;6.80;99.90
8715;DHT22;4394;51.208;8.904;2024-03-23T09:28:15;6.80;99.90
8715;DHT22;4394;51.208;8.904;2024-03-23T09:31:05;6.90;99.90
8715;DHT22;4394;51.208;8.904;2024-03-23T09:33:53;7.00;99.90
8715;DHT22;4394;51.208;8.904;2024-03-23T09:36:40;7.00;99.90
8715;DHT22;4394;51.208;8.904;2024-03-23T09:39:29;7.10;99.90
8715;DHT22;4394;51.208;8.904;2024-03-23T09:42:16;7.20;99.90
8715;DHT22;4394;51.208;8.904;2024-03-23T09:45:05;7.30;99.90
8715;DHT22;4394;51.208;8.904;2024-03-23T09:47:53;7.30;99.90
8715;DHT22;4394;51.208;8.904;2024-03-23T09:50:43;7.30;99.90
8715;DHT22;4394;51.208;8.904;2024-03-23T09:53:29;7.30;99.90
8715;DHT22;4394;51.208;8.904;2024-03-23T09:56:19;7.30;99.90
8715;DHT22;4394;51.208;8.904;2024-03-23T09:59:05;7.30;99.90
8715;DHT22;4394;51.208;8.904;2024-03-23T10:01:53;7.40;99.90
8715;DHT22;4394;51.208;8.904;2024-03-23T10:04:41;7.60;99.90
8715;DHT22;4394;51.208;8.904;2024-03-23T10:07:29;7.80;99.90
8715;DHT22;4394;51.208;8.904;2024-03-23T10:10:16;7.90;99.90
8715;DHT22;4394;51.208;8.904;2024-03-23T10:13:06;8.00;99.90
8715;DHT22;4394;51.208;8.904;2024-03-23T10:15:57;8.00;99.90
8715;DHT22;4394;51.208;8.904;2024-03-23T10:18:45;8.00;99.90
8715;DHT22;4394;51.208;8.904;2024-03-23T10:21:31;8.10;99.90
8715;DHT22;4394;51.208;8.904;2024-03-23T10:24:19;8.30;99.90
8715;DHT22;4394;51.208;8.904;2024-03-23T10:27:07;8.40;99.90
8715;DHT22;4394;51.208;8.904;2024-03-23T10:30:08;8.60;99.90
8715;DHT22;4394;51.208;8.904;2024-03-23T10:33:07;8.70;99.90
8715;DHT22;4394;51.208;8.904;2024-03-23T10:35:54;8.60;99.90
8715;DHT22;4394;51.208;8.904;2024-03-23T10:38:42;8.50;99.90
8715;DHT22;4394;51.208;8.904;2024-03-23T10:41:32;8.50;99.90
8715;DHT22;4394;51.208;8.904;2024-03-23T10:44:19;8.50;99.90
8715;DHT22;4394;51.208;8.904;2024-03-23T10:47:10;8.50;99.90
8715;DHT22;4394;51.208;8.904;2024-03-23T10:49:58;8.60;99.90
8715;DHT22;4394;51.208;8.904;2024-03-23T10:52:48;8.70;99.90
8715;DHT22;4394;51.208;8.904;2024-03-23T10:55:36;8.70;99.90
8715;DHT22;4394;51.208;8.904;2024-03-23T10:58:26;8.70;99.90
8715;DHT22;4394;51.208;8.904;2024-03-23T11:01:15;8.70;99.90
8715;DHT22;4394;51.208;8.904;2024-03-23T11:04:03;8.90;99.90
8715;DHT22;4394;51.208;8.904;2024-03-23T11:06:52;9.10;99.90
8715;DHT22;4394;51.208;8.904;2024-03-23T11:09:40;9.30;99.90
8715;DHT22;4394;51.208;8.904;2024-03-23T11:12:31;9.40;99.90
8715;DHT22;4394;51.208;8.904;2024-03-23T11:15:19;9.50;99.90
8715;DHT22;4394;51.208;8.904;2024-03-23T11:18:08;9.60;99.90
8715;DHT22;4394;51.208;8.904;2024-03-23T11:20:56;9.50;99.90
8715;DHT22;4394;51.208;8.904;2024-03-23T11:23:44;8.80;99.90
8715;DHT22;4394;51.208;8.904;2024-03-23T11:26:30;7.80;99.90
8715;DHT22;4394;51.208;8.904;2024-03-23T11:29:18;7.00;99.90
8715;DHT22;4394;51.208;8.904;2024-03-23T11:32:05;6.20;99.90
8715;DHT22;4394;51.208;8.904;2024-03-23T11:34:59;5.70;99.90
8715;DHT22;4394;51.208;8.904;2024-03-23T11:37:47;5.50;99.90
8715;DHT22;4394;51.208;8.904;2024-03-23T11:40:48;5.50;99.90
8715;DHT22;4394;51.208;8.904;2024-03-23T11:43:35;5.60;99.90
8715;DHT22;4394;51.208;8.904;2024-03-23T11:46:24;5.70;99.90
8715;DHT22;4394;51.208;8.904;2024-03-23T11:49:22;5.80;99.90
8715;DHT22;4394;51.208;8.904;2024-03-23T11:52:09;6.00;99.90
8715;DHT22;4394;51.208;8.904;2024-03-23T11:55:04;6.20;99.90
8715;DHT22;4394;51.208;8.904;2024-03-23T11:57:54;6.40;99.90
8715;DHT22;4394;51.208;8.904;2024-03-23T12:00:41;6.60;99.90
8715;DHT22;4394;51.208;8.904;2024-03-23T12:03:28;6.90;99.90
8715;DHT22;4394;51.208;8.904;2024-03-23T12:06:19;7.10;99.90
8715;DHT22;4394;51.208;8.904;2024-03-23T12:09:06;7.30;99.90
8715;DHT22;4394;51.208;8.904;2024-03-23T12:11:55;7.50;99.90
8715;DHT22;4394;51.208;8.904;2024-03-23T12:14:41;7.70;99.90
8715;DHT22;4394;51.208;8.904;2024-03-23T12:17:29;7.80;99.90
8715;DHT22;4394;51.208;8.904;2024-03-23T12:20:15;7.90;99.90
8715;DHT22;4394;51.208;8.904;2024-03-23T12:23:07;8.00;99.90
8715;DHT22;4394;51.208;8.904;2024-03-23T12:25:54;8.10;99.90
8715;DHT22;4394;51.208;8.904;2024-03-23T12:28:43;8.10;99.90
8715;DHT22;4394;51.208;8.904;2024-03-23T12:31:30;8.00;99.90
8715;DHT22;4394;51.208;8.904;2024-03-23T12:34:17;8.00;99.90
8715;DHT22;4394;51.208;8.904;2024-03-23T12:37:03;8.00;99.90
8715;DHT22;4394;51.208;8.904;2024-03-23T12:39:52;7.90;99.90
8715;DHT22;4394;51.208;8.904;2024-03-23T12:42:38;7.80;99.90
8715;DHT22;4394;51.208;8.904;2024-03-23T12:45:27;7.80;99.90
8715;DHT22;4394;51.208;8.904;2024-03-23T12:48:13;7.80;99.90
8715;DHT22;4394;51.208;8.904;2024-03-23T12:51:02;7.90;99.90
8715;DHT22;4394;51.208;8.904;2024-03-23T12:53:49;7.80;99.90
8715;DHT22;4394;51.208;8.904;2024-03-23T12:56:37;7.80;99.90
8715;DHT22;4394;51.208;8.904;2024-03-23T12:59:23;7.70;99.90
8715;DHT22;4394;51.208;8.904;2024-03-23T13:02:12;7.70;99.90
8715;DHT22;4394;51.208;8.904;2024-03-23T13:04:58;7.50;99.90
8715;DHT22;4394;51.208;8.904;2024-03-23T13:07:45;7.40;99.90
8715;DHT22;4394;51.208;8.904;2024-03-23T13:10:34;7.30;99.90
8715;DHT22;4394;51.208;8.904;2024-03-23T13:13:21;6.90;99.90
8715;DHT22;4394;51.208;8.904;2024-03-23T13:16:09;6.20;99.90
8715;DHT22;4394;51.208;8.904;2024-03-23T13:18:59;5.80;99.90
8715;DHT22;4394;51.208;8.904;2024-03-23T13:21:47;5.70;99.90
8715;DHT22;4394;51.208;8.904;2024-03-23T13:24:33;5.70;99.90
8715;DHT22;4394;51.208;8.904;2024-03-23T13:27:21;5.70;99.90
8715;DHT22;4394;51.208;8.904;2024-03-23T13:30:10;5.80;99.90
8715;DHT22;4394;51.208;8.904;2024-03-23T13:32:57;6.00;99.90
8715;DHT22;4394;51.208;8.904;2024-03-23T13:35:52;6.30;99.90
8715;DHT22;4394;51.208;8.904;2024-03-23T13:38:39;6.50;99.90
8715;DHT22;4394;51.208;8.904;2024-03-23T13:41:26;6.70;99.90
8715;DHT22;4394;51.208;8.904;2024-03-23T13:44:13;6.70;99.90
8715;DHT22;4394;51.208;8.904;2024-03-23T13:47:02;6.90;99.90
8715;DHT22;4394;51.208;8.904;2024-03-23T13:49:50;7.10;99.90
8715;DHT22;4394;51.208;8.904;2024-03-23T13:52:39;7.20;99.90
8715;DHT22;4394;51.208;8.904;2024-03-23T13:55:25;7.30;99.90
8715;DHT22;4394;51.208;8.904;2024-03-23T13:58:12;7.40;99.90
8715;DHT22;4394;51.208;8.904;2024-03-23T14:00:59;7.50;99.90
8715;DHT22;4394;51.208;8.904;2024-03-23T14:03:46;7.50;99.90
8715;DHT22;4394;51.208;8.904;2024-03-23T14:06:32;7.50;99.90
8715;DHT22;4394;51.208;8.904;2024-03-23T14:09:21;7.40;99.90
8715;DHT22;4394;51.208;8.904;2024-03-23T14:12:09;7.30;99.90
8715;DHT22;4394;51.208;8.904;2024-03-23T14:14:56;7.40;99.90
8715;DHT22;4394;51.208;8.904;2024-03-23T14:17:44;7.40;99.90
8715;DHT22;4394;51.208;8.904;2024-03-23T14:20:30;7.30;99.90
8715;DHT22;4394;51.208;8.904;2024-03-23T14:23:18;7.30;99.90
8715;DHT22;4394;51.208;8.904;2024-03-23T14:26:05;7.50;99.90
8715;DHT22;4394;51.208;8.904;2024-03-23T14:28:54;7.40;99.90
8715;DHT22;4394;51.208;8.904;2024-03-23T14:31:40;7.10;99.90
8715;DHT22;4394;51.208;8.904;2024-03-23T14:34:28;7.00;99.90
8715;DHT22;4394;51.208;8.904;2024-03-23T14:37:15;6.90;99.90
8715;DHT22;4394;51.208;8.904;2024-03-23T14:40:03;6.90;99.90
8715;DHT22;4394;51.208;8.904;2024-03-23T14:42:51;6.80;99.90
8715;DHT22;4394;51.208;8.904;2024-03-23T14:48:51;7.20;99.90
8715;DHT22;4394;51.208;8.904;2024-03-23T14:51:41;7.20;99.90
8715;DHT22;4394;51.208;8.904;2024-03-23T14:54:30;7.30;99.90
8715;DHT22;4394;51.208;8.904;2024-03-23T14:57:20;7.40;99.90
8715;DHT22;4394;51.208;8.904;2024-03-23T15:00:10;7.50;99.90
8715;DHT22;4394;51.208;8.904;2024-03-23T15:02:59;7.60;99.90
8715;DHT22;4394;51.208;8.904;2024-03-23T15:05:53;7.60;99.90
8715;DHT22;4394;51.208;8.904;2024-03-23T15:08:42;7.70;99.90
8715;DHT22;4394;51.208;8.904;2024-03-23T15:11:29;7.70;99.90
8715;DHT22;4394;51.208;8.904;2024-03-23T15:14:19;7.90;99.90
8715;DHT22;4394;51.208;8.904;2024-03-23T15:17:08;7.90;99.90
8715;DHT22;4394;51.208;8.904;2024-03-23T15:19:56;8.00;99.90
8715;DHT22;4394;51.208;8.904;2024-03-23T15:22:42;8.10;99.90
8715;DHT22;4394;51.208;8.904;2024-03-23T15:25:30;8.10;99.90
8715;DHT22;4394;51.208;8.904;2024-03-23T15:28:19;8.10;99.90
8715;DHT22;4394;51.208;8.904;2024-03-23T15:31:09;8.20;99.90
8715;DHT22;4394;51.208;8.904;2024-03-23T15:33:58;8.10;99.90
8715;DHT22;4394;51.208;8.904;2024-03-23T15:36:46;8.10;99.90
8715;DHT22;4394;51.208;8.904;2024-03-23T15:39:32;8.00;99.90
8715;DHT22;4394;51.208;8.904;2024-03-23T15:42:20;8.00;99.90
8715;DHT22;4394;51.208;8.904;2024-03-23T15:45:09;8.10;99.90
8715;DHT22;4394;51.208;8.904;2024-03-23T15:47:59;8.10;99.90
8715;DHT22;4394;51.208;8.904;2024-03-23T15:50:52;8.00;99.90
8715;DHT22;4394;51.208;8.904;2024-03-23T15:53:41;8.10;99.90
8715;DHT22;4394;51.208;8.904;2024-03-23T15:56:30;8.10;99.90
8715;DHT22;4394;51.208;8.904;2024-03-23T15:59:18;8.10;99.90
8715;DHT22;4394;51.208;8.904;2024-03-23T16:02:04;8.10;99.90
8715;DHT22;4394;51.208;8.904;2024-03-23T16:04:52;8.10;99.90
8715;DHT22;4394;51.208;8.904;2024-03-23T16:07:40;8.00;99.90
8715;DHT22;4394;51.208;8.904;2024-03-23T16:10:27;8.00;99.90
8715;DHT22;4394;51.208;8.904;2024-03-23T16:13:14;8.00;99.90
8715;DHT22;4394;51.208;8.904;2024-03-23T16:16:03;8.00;99.90
8715;DHT22;4394;51.208;8.904;2024-03-23T16:18:52;8.10;99.90
8715;DHT22;4394;51.208;8.904;2024-03-23T16:21:40;8.10;99.90
8715;DHT22;4394;51.208;8.904;2024-03-23T16:24:29;7.90;99.90
8715;DHT22;4394;51.208;8.904;2024-03-23T16:27:17;7.80;99.90
8715;DHT22;4394;51.208;8.904;2024-03-23T16:30:05;7.80;99.90
8715;DHT22;4394;51.208;8.904;2024-03-23T16:32:53;7.60;99.90
8715;DHT22;4394;51.208;8.904;2024-03-23T16:35:40;7.60;99.90
8715;DHT22;4394;51.208;8.904;2024-03-23T16:38:28;7.50;99.90
8715;DHT22;4394;51.208;8.904;2024-03-23T16:41:16;7.60;99.90
8715;DHT22;4394;51.208;8.904;2024-03-23T16:44:05;7.60;99.90
8715;DHT22;4394;51.208;8.904;2024-03-23T16:46:52;7.70;99.90
8715;DHT22;4394;51.208;8.904;2024-03-23T16:49:40;7.60;99.90
8715;DHT22;4394;51.208;8.904;2024-03-23T16:52:26;7.60;99.90
8715;DHT22;4394;51.208;8.904;2024-03-23T16:55:14;7.70;99.90
8715;DHT22;4394;51.208;8.904;2024-03-23T16:58:02;7.70;99.90
8715;DHT22;4394;51.208;8.904;2024-03-23T17:00:50;7.70;99.90
8715;DHT22;4394;51.208;8.904;2024-03-23T17:03:39;7.60;99.90
8715;DHT22;4394;51.208;8.904;2024-03-23T17:06:27;7.50;99.90
8715;DHT22;4394;51.208;8.904;2024-03-23T17:09:13;7.50;99.90
8715;DHT22;4394;51.208;8.904;2024-03-23T17:12:02;7.50;99.90
8715;DHT22;4394;51.208;8.904;2024-03-23T17:14:50;7.50;99.90
8715;DHT22;4394;51.208;8.904;2024-03-23T17:17:37;7.30;99.90
8715;DHT22;4394;51.208;8.904;2024-03-23T17:20:24;7.20;99.90
8715;DHT22;4394;51.208;8.904;2024-03-23T17:23:11;7.20;99.90
8715;DHT22;4394;51.208;8.904;2024-03-23T17:25:58;7.10;99.90
8715;DHT22;4394;51.208;8.904;2024-03-23T17:28:45;7.20;99.90
8715;DHT22;4394;51.208;8.904;2024-03-23T17:31:33;7.20;99.90
8715;DHT22;4394;51.208;8.904;2024-03-23T17:34:20;7.30;99.90
8715;DHT22;4394;51.208;8.904;2024-03-23T17:37:06;7.30;99.90
8715;DHT22;4394;51.208;8.904;2024-03-23T17:39:54;7.30;99.90
8715;DHT22;4394;51.208;8.904;2024-03-23T17:42:41;7.30;99.90
8715;DHT22;4394;51.208;8.904;2024-03-23T17:45:29;7.10;99.90
8715;DHT22;4394;51.208;8.904;2024-03-23T17:48:17;7.00;99.90
8715;DHT22;4394;51.208;8.904;2024-03-23T17:51:04;7.00;99.90
8715;DHT22;4394;51.208;8.904;2024-03-23T17:53:52;7.00;99.90
8715;DHT22;4394;51.208;8.904;2024-03-23T17:56:38;7.00;99.90
8715;DHT22;4394;51.208;8.904;2024-03-23T17:59:26;7.00;99.90
8715;DHT22;4394;51.208;8.904;2024-03-23T18:02:13;6.90;99.90
8715;DHT22;4394;51.208;8.904;2024-03-23T18:05:02;6.90;99.90
8715;DHT22;4394;51.208;8.904;2024-03-23T18:07:50;6.80;99.90
8715;DHT22;4394;51.208;8.904;2024-03-23T18:10:36;6.90;99.90
8715;DHT22;4394;51.208;8.904;2024-03-23T18:13:23;6.80;99.90
8715;DHT22;4394;51.208;8.904;2024-03-23T18:16:09;6.80;99.90
8715;DHT22;4394;51.208;8.904;2024-03-23T18:18:57;6.80;99.90
8715;DHT22;4394;51.208;8.904;2024-03-23T18:21:45;6.70;99.90
8715;DHT22;4394;51.208;8.904;2024-03-23T18:24:32;6.70;99.90
8715;DHT22;4394;51.208;8.904;2024-03-23T18:27:18;6.70;99.90
8715;DHT22;4394;51.208;8.904;2024-03-23T18:30:06;6.70;99.90
8715;DHT22;4394;51.208;8.904;2024-03-23T18:32:53;6.60;99.90
8715;DHT22;4394;51.208;8.904;2024-03-23T18:35:40;6.60;99.90
8715;DHT22;4394;51.208;8.904;2024-03-23T18:38:29;6.60;99.90
8715;DHT22;4394;51.208;8.904;2024-03-23T18:41:17;6.60;99.90
8715;DHT22;4394;51.208;8.904;2024-03-23T18:44:05;6.60;99.90
8715;DHT22;4394;51.208;8.904;2024-03-23T18:46:51;6.60;99.90
8715;DHT22;4394;51.208;8.904;2024-03-23T18:49:38;6.50;99.90
8715;DHT22;4394;51.208;8.904;2024-03-23T18:52:24;6.40;99.90
8715;DHT22;4394;51.208;8.904;2024-03-23T18:55:13;6.40;99.90
8715;DHT22;4394;51.208;8.904;2024-03-23T18:57:59;6.30;99.90
8715;DHT22;4394;51.208;8.904;2024-03-23T19:00:47;6.30;99.90
8715;DHT22;4394;51.208;8.904;2024-03-23T19:03:33;6.30;99.90
8715;DHT22;4394;51.208;8.904;2024-03-23T19:06:22;6.40;99.90
8715;DHT22;4394;51.208;8.904;2024-03-23T19:09:09;6.30;99.90
8715;DHT22;4394;51.208;8.904;2024-03-23T19:11:59;6.30;99.90
8715;DHT22;4394;51.208;8.904;2024-03-23T19:14:46;6.20;99.90
8715;DHT22;4394;51.208;8.904;2024-03-23T19:17:33;6.20;99.90
8715;DHT22;4394;51.208;8.904;2024-03-23T19:20:19;6.10;99.90
8715;DHT22;4394;51.208;8.904;2024-03-23T19:23:06;6.10;99.90
8715;DHT22;4394;51.208;8.904;2024-03-23T19:25:53;6.10;99.90
8715;DHT22;4394;51.208;8.904;2024-03-23T19:28:42;6.00;99.90